Terminal Aerodrome Forecast
Issued by NWS

Home | Current Version | Previous Version | Text Only | Print | Product List | Glossary On
Versions: 1 2 3 4 5 6 7 8 9 10 11 12 13 14 15 16 17 18 19 20 21 22 23 24 25 26 27 28 29 30 31 32 33 34
000
FTUS43 KFGF 230533
TAFTVF
TAF
KTVF 230533Z 2306/2406 00000KT P6SM OVC035
     FM230700 VRB03KT 4SM -SN OVC025
      TEMPO 2307/2309 1SM -SN OVC015
     FM230900 VRB03KT 3SM -SN OVC020
     FM231300 32006KT P6SM BKN045
     FM231800 28007KT P6SM SCT200
     FM240500 21006KT P6SM FEW250=

USA.gov is the U.S. government's official web portal to all federal, state and local government web resources and services.